createdAt,value
2022-11-13T00:02:27.321Z,51154.00
2022-11-13T00:05:13.290Z,51213.63
2022-11-13T00:07:58.778Z,51148.03
2022-11-13T00:10:44.259Z,51161.94
2022-11-13T00:13:30.655Z,51154.00
2022-11-13T00:16:20.592Z,51152.00
2022-11-13T00:19:06.358Z,51177.84
2022-11-13T00:21:51.768Z,51171.88
2022-11-13T00:24:37.252Z,51138.09
2022-11-13T00:27:22.811Z,51175.88
2022-11-13T00:30:09.074Z,51201.72
2022-11-13T00:32:54.668Z,51167.91
2022-11-13T00:35:40.566Z,51193.75
2022-11-13T00:38:26.291Z,51154.00
2022-11-13T00:41:12.691Z,51154.00
2022-11-13T00:43:58.164Z,51159.97
2022-11-13T00:46:43.685Z,51138.09
2022-11-13T00:49:29.166Z,51175.88
2022-11-13T00:52:14.763Z,51177.84
2022-11-13T00:55:00.795Z,51152.00
2022-11-13T00:57:46.301Z,51142.06
2022-11-13T01:00:32.698Z,51159.97
2022-11-13T01:03:18.372Z,51189.78
2022-11-13T01:06:13.683Z,51171.88
2022-11-13T01:08:59.986Z,51205.69
2022-11-13T01:11:45.739Z,51171.88
2022-11-13T01:14:31.047Z,51155.97
2022-11-13T01:17:16.528Z,51152.00
2022-11-13T01:20:02.004Z,51159.97
2022-11-13T01:22:47.540Z,51140.09
2022-11-13T01:25:33.425Z,51171.88
2022-11-13T01:28:19.082Z,51171.88
2022-11-13T01:31:11.311Z,51179.84
2022-11-13T01:33:57.562Z,51154.00
2022-11-13T01:36:42.896Z,51165.91
2022-11-13T01:39:28.326Z,51165.91
2022-11-13T01:42:13.723Z,51177.84
2022-11-13T01:45:02.226Z,51144.06
2022-11-13T01:47:47.655Z,51169.91
2022-11-13T01:50:33.107Z,51159.97
2022-11-13T01:53:19.454Z,51150.03
2022-11-13T01:56:05.553Z,51165.91
2022-11-13T01:59:07.326Z,51159.97
2022-11-13T02:01:55.594Z,51199.72
2022-11-13T02:04:41.382Z,51173.88
2022-11-13T02:07:27.025Z,51152.00
2022-11-13T02:10:12.896Z,51171.88
2022-11-13T02:12:58.768Z,51177.84
2022-11-13T02:15:44.926Z,51169.91
2022-11-13T02:18:31.949Z,51161.94
2022-11-13T02:22:08.312Z,51177.84
2022-11-13T02:24:55.121Z,51177.84
2022-11-13T02:27:46.198Z,51161.94
2022-11-13T02:30:35.199Z,51185.81
2022-11-13T02:33:31.450Z,51189.78
2022-11-13T02:36:20.534Z,51165.91
2022-11-13T02:39:10.584Z,51146.03
2022-11-13T02:41:56.002Z,51148.03
2022-11-13T02:44:41.470Z,51179.84
2022-11-13T02:47:27.392Z,51134.13
2022-11-13T02:50:13.323Z,51207.66
2022-11-13T02:52:59.419Z,51201.72
2022-11-13T02:55:45.168Z,51167.91
2022-11-13T02:58:31.128Z,51161.94
2022-11-13T03:01:17.115Z,51159.97
2022-11-13T03:04:03.614Z,51189.78
2022-11-13T03:06:49.332Z,51169.91
2022-11-13T03:09:35.313Z,51155.97
2022-11-13T03:12:20.681Z,51205.69
2022-11-13T03:15:08.041Z,51159.97
2022-11-13T03:17:54.040Z,51177.84
2022-11-13T03:20:43.140Z,51201.72
2022-11-13T03:23:28.776Z,51159.97
2022-11-13T03:26:17.049Z,51173.88
2022-11-13T03:29:02.645Z,51215.63
2022-11-13T03:31:48.315Z,51175.88
2022-11-13T03:34:34.200Z,51167.91
2022-11-13T03:37:19.759Z,51167.91
2022-11-13T03:40:06.176Z,51175.88
2022-11-13T03:42:51.849Z,51171.88
2022-11-13T03:45:37.227Z,51181.81
2022-11-13T03:48:22.872Z,51161.94
2022-11-13T03:51:08.551Z,51165.91
2022-11-13T03:53:54.992Z,51154.00
2022-11-13T03:56:40.796Z,51177.84
2022-11-13T03:59:26.113Z,51185.81
2022-11-13T04:02:11.430Z,51185.81
2022-11-13T04:04:56.862Z,51161.94
2022-11-13T04:07:42.461Z,51185.81
2022-11-13T04:10:28.396Z,51169.91
2022-11-13T04:13:14.136Z,51171.88
2022-11-13T04:15:59.674Z,51177.84
2022-11-13T04:18:45.097Z,51159.97
2022-11-13T04:21:30.671Z,51193.75
2022-11-13T04:24:16.053Z,51167.91
2022-11-13T04:27:01.445Z,51173.88
2022-11-13T04:29:46.818Z,51154.00
2022-11-13T04:32:33.015Z,51148.03
2022-11-13T04:35:18.590Z,51140.09
2022-11-13T04:38:04.324Z,51154.00
2022-11-13T04:41:11.127Z,51205.69
2022-11-13T04:43:56.595Z,51154.00
2022-11-13T04:46:42.237Z,51163.94
2022-11-13T04:49:27.560Z,51195.75
2022-11-13T04:52:13.212Z,51161.94
2022-11-13T04:54:58.878Z,51163.94
2022-11-13T04:57:43.995Z,51195.75
2022-11-13T05:00:29.524Z,51138.09
2022-11-13T05:03:14.859Z,51165.91
2022-11-13T05:06:09.258Z,51159.97
2022-11-13T05:08:54.900Z,51177.84
2022-11-13T05:11:40.661Z,51155.97
2022-11-13T05:14:26.164Z,51179.84
2022-11-13T05:17:13.078Z,51159.97
2022-11-13T05:19:58.772Z,51163.94
2022-11-13T05:22:44.200Z,51179.84
2022-11-13T05:25:30.959Z,51167.91
2022-11-13T05:28:16.893Z,51163.94
2022-11-13T05:31:12.043Z,51154.00
2022-11-13T05:34:01.290Z,51171.88
2022-11-13T05:36:51.247Z,51150.03
2022-11-13T05:39:36.652Z,51201.72
2022-11-13T05:42:22.145Z,51159.97
2022-11-13T05:45:08.390Z,51150.03
2022-11-13T05:47:54.229Z,51167.91
2022-11-13T05:50:39.557Z,51193.75
2022-11-13T05:53:24.981Z,51171.88
2022-11-13T05:56:19.473Z,51173.88
2022-11-13T05:59:06.274Z,51146.03
2022-11-13T06:01:51.984Z,51169.91
2022-11-13T06:04:37.446Z,51185.81
2022-11-13T06:07:23.010Z,51201.72
2022-11-13T06:10:09.432Z,51171.88
2022-11-13T06:12:55.570Z,51165.91
2022-11-13T06:15:41.003Z,51154.00
2022-11-13T06:18:27.019Z,51167.91
2022-11-13T06:21:23.318Z,51169.91
2022-11-13T06:24:12.095Z,51169.91
2022-11-13T06:26:57.484Z,51163.94
2022-11-13T06:29:43.136Z,51185.81
2022-11-13T06:32:28.870Z,51152.00
2022-11-13T06:35:14.421Z,51169.91
2022-11-13T06:37:59.816Z,51191.78
2022-11-13T06:40:45.263Z,51181.81
2022-11-13T06:43:31.438Z,51159.97
2022-11-13T06:46:23.559Z,51146.03
2022-11-13T06:49:09.114Z,51185.81
2022-11-13T06:51:54.588Z,51152.00
2022-11-13T06:54:40.007Z,51138.09
2022-11-13T06:57:25.520Z,51163.94
2022-11-13T07:00:11.899Z,51165.91
2022-11-13T07:02:57.567Z,51152.00
2022-11-13T07:05:43.441Z,51138.09
2022-11-13T07:08:29.427Z,51146.03
2022-11-13T07:11:19.103Z,51154.00
2022-11-13T07:14:05.132Z,51146.03
2022-11-13T07:17:08.517Z,51161.94
2022-11-13T07:19:55.521Z,51171.88
2022-11-13T07:22:41.139Z,51148.03
2022-11-13T07:25:27.829Z,51173.88
2022-11-13T07:28:13.695Z,51163.94
2022-11-13T07:31:00.115Z,51201.72
2022-11-13T07:33:49.336Z,51197.72
2022-11-13T07:36:34.753Z,51165.91
2022-11-13T07:39:20.308Z,51177.84
2022-11-13T07:42:05.983Z,51159.97
2022-11-13T07:44:55.458Z,51155.97
2022-11-13T07:47:41.280Z,51157.97
2022-11-13T07:50:31.396Z,51201.72
2022-11-13T07:53:18.334Z,51193.75
2022-11-13T07:56:05.301Z,51163.94
2022-11-13T07:58:50.861Z,51203.69
2022-11-13T08:01:36.867Z,51217.59
2022-11-13T08:04:22.267Z,51177.84
2022-11-13T08:07:08.548Z,51195.75
2022-11-13T08:09:54.441Z,51177.84
2022-11-13T08:12:39.941Z,51203.69
2022-11-13T08:15:25.454Z,51163.94
2022-11-13T08:18:11.050Z,51201.72
2022-11-13T08:20:56.537Z,51191.78
2022-11-13T08:23:42.941Z,51187.78
2022-11-13T08:26:29.163Z,51173.88
2022-11-13T08:29:15.137Z,51195.75
2022-11-13T08:32:00.565Z,51161.94
2022-11-13T08:34:46.396Z,51173.88
2022-11-13T08:37:33.788Z,51199.72
2022-11-13T08:40:19.868Z,51179.84
2022-11-13T08:43:05.465Z,51179.84
2022-11-13T08:45:51.228Z,51187.78
2022-11-13T08:48:37.780Z,51185.81
2022-11-13T08:51:23.696Z,51177.84
2022-11-13T08:54:09.185Z,51189.78
2022-11-13T08:56:57.881Z,51193.75
2022-11-13T08:59:45.213Z,51207.66
2022-11-13T09:02:30.625Z,51185.81
2022-11-13T09:05:16.349Z,51209.66
2022-11-13T09:08:02.578Z,51187.78
2022-11-13T09:10:48.323Z,51183.81
2022-11-13T09:13:38.599Z,51213.63
2022-11-13T09:16:27.171Z,51205.69
2022-11-13T09:19:12.701Z,51237.50
2022-11-13T09:21:58.658Z,51207.66
2022-11-13T09:24:44.595Z,51201.72
2022-11-13T09:27:30.244Z,51207.66
2022-11-13T09:30:16.699Z,51219.59
2022-11-13T09:33:02.512Z,51213.63
2022-11-13T09:35:48.253Z,51211.66
2022-11-13T09:38:33.773Z,51209.66
2022-11-13T09:41:28.621Z,51225.56
2022-11-13T09:44:42.099Z,51205.69
2022-11-13T09:47:55.172Z,51217.59
2022-11-13T09:50:41.180Z,51197.72
2022-11-13T09:53:33.911Z,51201.72
2022-11-13T09:56:27.938Z,51175.88
2022-11-13T09:59:56.419Z,51227.56
2022-11-13T10:03:46.319Z,51201.72
2022-11-13T10:06:44.623Z,51219.59
2022-11-13T10:09:55.128Z,51231.53
2022-11-13T10:12:40.650Z,51221.59
2022-11-13T10:15:27.610Z,51187.78
2022-11-13T10:18:35.641Z,51231.53
2022-11-13T10:21:47.221Z,51219.59
2022-11-13T10:24:41.971Z,51219.59
2022-11-13T10:27:27.530Z,51225.56
2022-11-13T10:30:19.047Z,51221.59
2022-11-13T10:33:08.748Z,51219.59
2022-11-13T10:36:34.622Z,51195.75
2022-11-13T10:39:20.549Z,51237.50
2022-11-13T10:42:21.137Z,51225.56
2022-11-13T10:45:17.373Z,51227.56
2022-11-13T10:48:04.993Z,51235.50
2022-11-13T10:51:04.484Z,51231.53
2022-11-13T10:53:50.484Z,51259.34
2022-11-13T10:56:36.800Z,51261.34
2022-11-13T10:59:22.700Z,51281.22
2022-11-13T11:02:22.475Z,51271.28
2022-11-13T11:05:23.117Z,51311.06
2022-11-13T11:08:11.183Z,51344.84
2022-11-13T11:11:33.869Z,51358.75
2022-11-13T11:14:41.632Z,51390.56
2022-11-13T11:17:44.443Z,51404.50
2022-11-13T11:20:41.354Z,51398.53
2022-11-13T11:23:34.724Z,51414.44
2022-11-13T11:26:42.766Z,51442.25
2022-11-13T11:29:49.344Z,51478.03
2022-11-13T11:32:42.952Z,51501.91
2022-11-13T11:35:57.275Z,51587.41
2022-11-13T11:39:06.298Z,51579.44
2022-11-13T11:42:36.885Z,51569.50
2022-11-13T11:45:34.054Z,51505.88
2022-11-13T11:48:34.889Z,51515.81
2022-11-13T11:51:52.173Z,51517.81
2022-11-13T11:55:10.322Z,51488.00
2022-11-13T11:58:28.166Z,51531.72
2022-11-13T12:02:30.990Z,51567.50
2022-11-13T12:05:26.071Z,51617.22
2022-11-13T12:08:39.346Z,51643.06
2022-11-13T12:11:35.498Z,51567.50
2022-11-13T12:15:08.648Z,51583.41
2022-11-13T12:18:36.182Z,51647.03
2022-11-13T12:21:27.031Z,51655.00
2022-11-13T12:24:27.608Z,51591.38
2022-11-13T12:27:20.496Z,51619.22
2022-11-13T12:30:18.125Z,51645.06
2022-11-13T12:33:06.890Z,51617.22
2022-11-13T12:35:53.792Z,51609.28
2022-11-13T12:38:57.153Z,51603.31
2022-11-13T12:42:08.967Z,51631.13
2022-11-13T12:45:20.315Z,51690.78
2022-11-13T12:48:36.291Z,51631.13
2022-11-13T12:51:21.961Z,51645.06
2022-11-13T12:54:10.860Z,51670.91
2022-11-13T12:57:14.386Z,51674.88
2022-11-13T13:00:25.655Z,51593.38
2022-11-13T13:03:44.890Z,51653.00
2022-11-13T13:07:06.707Z,51651.03
2022-11-13T13:10:23.978Z,51698.75
2022-11-13T13:13:42.167Z,51710.66
2022-11-13T13:16:29.872Z,51662.94
2022-11-13T13:19:30.292Z,51712.66
2022-11-13T13:22:34.470Z,51712.66
2022-11-13T13:25:34.550Z,51722.59
2022-11-13T13:28:24.597Z,51752.41
2022-11-13T13:31:13.301Z,51674.88
2022-11-13T13:34:36.330Z,51641.09
2022-11-13T13:38:01.356Z,51658.97
2022-11-13T13:41:06.699Z,51633.13
2022-11-13T13:44:02.852Z,51647.03
2022-11-13T13:46:49.865Z,51607.28
2022-11-13T13:49:36.563Z,51579.44
2022-11-13T13:52:32.135Z,51563.53
2022-11-13T13:55:37.641Z,51527.75
2022-11-13T13:58:34.489Z,51557.56
2022-11-13T14:01:33.918Z,51541.66
2022-11-13T14:04:22.911Z,51549.63
2022-11-13T14:07:30.046Z,51495.94
2022-11-13T14:10:20.745Z,51452.19
2022-11-13T14:13:06.210Z,51410.44
2022-11-13T14:16:05.201Z,51398.53
2022-11-13T14:18:50.708Z,51372.69
2022-11-13T14:21:36.355Z,51360.75
2022-11-13T14:24:30.168Z,51362.75
2022-11-13T14:27:23.811Z,51344.84
2022-11-13T14:30:27.795Z,51354.78
2022-11-13T14:33:36.017Z,51322.97
2022-11-13T14:36:34.217Z,51344.84
2022-11-13T14:39:32.491Z,51340.88
2022-11-13T14:42:28.545Z,51338.88
2022-11-13T14:45:17.281Z,51321.00
2022-11-13T14:48:53.466Z,51321.00
2022-11-13T14:51:40.321Z,51332.91
2022-11-13T14:55:07.964Z,51344.84
2022-11-13T14:57:50.365Z,51315.03
2022-11-13T15:00:38.412Z,51313.03
2022-11-13T15:03:25.258Z,51328.94
2022-11-13T15:06:24.589Z,51293.16
2022-11-13T15:09:16.813Z,51301.09
2022-11-13T15:12:02.345Z,51313.03
2022-11-13T15:14:47.890Z,51297.13
2022-11-13T15:17:33.453Z,51285.19
2022-11-13T15:20:25.652Z,51315.03
2022-11-13T15:23:16.099Z,51289.19
2022-11-13T15:26:01.564Z,51283.22
2022-11-13T15:28:47.990Z,51289.19
2022-11-13T15:31:37.619Z,51267.31
2022-11-13T15:34:24.000Z,51263.34
2022-11-13T15:37:15.457Z,51271.28
2022-11-13T15:40:01.580Z,51289.19
2022-11-13T15:42:47.543Z,51289.19
2022-11-13T15:45:33.293Z,51273.28
2022-11-13T15:48:18.786Z,51301.09
2022-11-13T15:51:04.821Z,51307.06
2022-11-13T15:54:13.008Z,51253.41
2022-11-13T15:56:58.584Z,51275.25
2022-11-13T15:59:43.827Z,51301.09
2022-11-13T16:02:29.463Z,51253.41
2022-11-13T16:05:15.069Z,51281.22
2022-11-13T16:08:00.616Z,51255.38
2022-11-13T16:10:46.237Z,51259.34
2022-11-13T16:13:32.117Z,51283.22
2022-11-13T16:16:23.746Z,51285.19
2022-11-13T16:19:16.188Z,51263.34
2022-11-13T16:22:01.942Z,51348.81
2022-11-13T16:24:47.551Z,51259.34
2022-11-13T16:27:36.085Z,51277.25
2022-11-13T16:30:27.891Z,51271.28
2022-11-13T16:33:13.455Z,51281.22
2022-11-13T16:35:58.983Z,51271.28
2022-11-13T16:38:44.736Z,51269.31
2022-11-13T16:41:32.136Z,51251.41
2022-11-13T16:44:17.787Z,51281.22
2022-11-13T16:47:03.402Z,51257.38
2022-11-13T16:49:49.851Z,51269.31
2022-11-13T16:52:35.457Z,51287.19
2022-11-13T16:55:21.505Z,51263.34
2022-11-13T16:58:07.124Z,51247.44
2022-11-13T17:00:57.399Z,51259.34
2022-11-13T17:03:45.811Z,51257.38
2022-11-13T17:06:35.638Z,51259.34
2022-11-13T17:09:21.182Z,51245.44
2022-11-13T17:12:06.783Z,51255.38
2022-11-13T17:14:52.305Z,51273.28
2022-11-13T17:17:37.659Z,51285.19
2022-11-13T17:20:23.267Z,51281.22
2022-11-13T17:23:16.014Z,51259.34
2022-11-13T17:26:04.148Z,51263.34
2022-11-13T17:28:49.641Z,51249.41
2022-11-13T17:31:35.513Z,51261.34
2022-11-13T17:34:20.972Z,51261.34
2022-11-13T17:37:06.557Z,51261.34
2022-11-13T17:39:52.023Z,51257.38
2022-11-13T17:42:37.362Z,51261.34
2022-11-13T17:45:23.484Z,51239.47
2022-11-13T17:48:09.227Z,51257.38
2022-11-13T17:50:59.242Z,51257.38
2022-11-13T17:53:44.847Z,51245.44
2022-11-13T17:56:30.565Z,51257.38
2022-11-13T17:59:16.346Z,51277.25
2022-11-13T18:02:02.664Z,51251.41
2022-11-13T18:04:49.089Z,51261.34
2022-11-13T18:07:34.441Z,51239.47
2022-11-13T18:10:20.537Z,51241.47
2022-11-13T18:13:06.707Z,51233.50
2022-11-13T18:15:52.710Z,51251.41
2022-11-13T18:18:38.968Z,51243.47
2022-11-13T18:21:31.404Z,51249.41
2022-11-13T18:24:19.385Z,51245.44
2022-11-13T18:27:08.252Z,51249.41
2022-11-13T18:29:54.328Z,51251.41
2022-11-13T18:32:39.892Z,51233.50
2022-11-13T18:35:25.748Z,51227.56
2022-11-13T18:38:11.301Z,51229.53
2022-11-13T18:41:13.552Z,51245.44
2022-11-13T18:43:59.152Z,51239.47
2022-11-13T18:46:44.693Z,51255.38
2022-11-13T18:49:30.051Z,51223.56
2022-11-13T18:52:15.911Z,51255.38
2022-11-13T18:55:02.052Z,51243.47
2022-11-13T18:57:48.352Z,51253.41
2022-11-13T19:00:33.772Z,51217.59
2022-11-13T19:03:19.141Z,51233.50
2022-11-13T19:06:10.209Z,51243.47
2022-11-13T19:09:02.401Z,51199.72
2022-11-13T19:11:48.316Z,51237.50
2022-11-13T19:14:34.063Z,51231.53
2022-11-13T19:17:19.338Z,51233.50
2022-11-13T19:20:05.846Z,51239.47
2022-11-13T19:22:51.373Z,51215.63
2022-11-13T19:25:36.856Z,51237.50
2022-11-13T19:28:22.937Z,51261.34
2022-11-13T19:31:15.038Z,51237.50
2022-11-13T19:34:04.685Z,51241.47
2022-11-13T19:36:51.869Z,51257.38
2022-11-13T19:39:38.062Z,51243.47
2022-11-13T19:42:24.071Z,51265.31
2022-11-13T19:45:10.188Z,51259.34
2022-11-13T19:47:55.897Z,51235.50
2022-11-13T19:50:43.767Z,51253.41
2022-11-13T19:53:31.436Z,51237.50
2022-11-13T19:56:20.786Z,51263.34
2022-11-13T19:59:11.464Z,51253.41
2022-11-13T20:01:56.990Z,51245.44
2022-11-13T20:04:42.923Z,51247.44
2022-11-13T20:07:29.146Z,51227.56
2022-11-13T20:10:15.642Z,51219.59
2022-11-13T20:13:01.504Z,51259.34
2022-11-13T20:15:54.788Z,51251.41
2022-11-13T20:18:42.478Z,51251.41
2022-11-13T20:21:33.105Z,51261.34
2022-11-13T20:24:19.185Z,51243.47
2022-11-13T20:27:05.005Z,51249.41
2022-11-13T20:29:50.630Z,51245.44
2022-11-13T20:32:40.179Z,51239.47
2022-11-13T20:35:26.174Z,51233.50
2022-11-13T20:38:11.742Z,51239.47
2022-11-13T20:40:57.910Z,51241.47
2022-11-13T20:43:43.723Z,51255.38
2022-11-13T20:46:30.768Z,51255.38
2022-11-13T20:49:16.647Z,51247.44
2022-11-13T20:52:04.608Z,51257.38
2022-11-13T20:54:50.127Z,51219.59
2022-11-13T20:57:40.744Z,51261.34
2022-11-13T21:00:27.221Z,51271.28
2022-11-13T21:03:13.668Z,51229.53
2022-11-13T21:05:59.656Z,51225.56
2022-11-13T21:08:46.176Z,51243.47
2022-11-13T21:11:32.339Z,51239.47
2022-11-13T21:14:17.764Z,51291.16
2022-11-13T21:17:03.402Z,51245.44
2022-11-13T21:19:49.413Z,51237.50
2022-11-13T21:22:37.129Z,51253.41
2022-11-13T21:25:23.351Z,51257.38
2022-11-13T21:28:09.143Z,51271.28
2022-11-13T21:30:54.941Z,51243.47
2022-11-13T21:33:43.334Z,51271.28
2022-11-13T21:36:29.907Z,51235.50
2022-11-13T21:39:16.037Z,51233.50
2022-11-13T21:42:01.938Z,51261.34
2022-11-13T21:44:47.566Z,51253.41
2022-11-13T21:47:33.851Z,51265.31
2022-11-13T21:50:19.676Z,51239.47
2022-11-13T21:53:05.328Z,51273.28
2022-11-13T21:55:51.805Z,51249.41
2022-11-13T21:58:40.409Z,51255.38
2022-11-13T22:01:33.783Z,51237.50
2022-11-13T22:04:23.416Z,51275.25
2022-11-13T22:07:09.176Z,51257.38
2022-11-13T22:09:55.344Z,51277.25
2022-11-13T22:12:40.894Z,51251.41
2022-11-13T22:15:26.307Z,51253.41
2022-11-13T22:18:12.544Z,51271.28
2022-11-13T22:21:08.024Z,51269.31
2022-11-13T22:23:53.968Z,51255.38
2022-11-13T22:26:43.349Z,51259.34
2022-11-13T22:29:29.448Z,51257.38
2022-11-13T22:32:15.567Z,51245.44
2022-11-13T22:35:01.824Z,51241.47
2022-11-13T22:37:47.911Z,51259.34
2022-11-13T22:40:33.575Z,51259.34
2022-11-13T22:43:19.150Z,51261.34
2022-11-13T22:46:10.337Z,51241.47
2022-11-13T22:48:58.219Z,51237.50
2022-11-13T22:51:43.880Z,51239.47
2022-11-13T22:54:29.546Z,51235.50
2022-11-13T22:57:15.328Z,51253.41
2022-11-13T23:00:01.089Z,51267.31
2022-11-13T23:02:47.522Z,51241.47
2022-11-13T23:05:36.199Z,51263.34
2022-11-13T23:08:22.099Z,51237.50
2022-11-13T23:11:15.594Z,51249.41
2022-11-13T23:14:04.335Z,51237.50
2022-11-13T23:16:50.097Z,51247.44
2022-11-13T23:19:35.630Z,51267.31
2022-11-13T23:22:21.483Z,51257.38
2022-11-13T23:25:07.968Z,51241.47
2022-11-13T23:27:53.450Z,51241.47
2022-11-13T23:30:38.979Z,51255.38
2022-11-13T23:33:24.869Z,51253.41
2022-11-13T23:36:13.277Z,51265.31
2022-11-13T23:38:59.065Z,51249.41
2022-11-13T23:41:44.411Z,51239.47
2022-11-13T23:44:30.226Z,51243.47
2022-11-13T23:47:16.106Z,51267.31
2022-11-13T23:50:01.642Z,51253.41
2022-11-13T23:52:48.594Z,51257.38
2022-11-13T23:55:35.015Z,51239.47
2022-11-13T23:58:20.901Z,51265.31
